Time;durP1;ratioP1;P1;durP2;ratioP2;P2;SDS_P1;SDS_P2;PMS_P1;PMS_P2;Temp;Humidity;BMP_temperature;BMP_pressure;BME280_temperature;BME280_humidity;BME280_pressure;Samples;Min_cycle;Max_cycle;Signal;HPM_P1;HPM_P2
2023/06/18 00:01:26;;;;;;;38.63;30.80;;;16.10;84.80;;;;;;5082008;28;20040;-80
2023/06/18 00:03:51;;;;;;;33.92;27.98;;;16.10;84.50;;;;;;5098730;28;20042;-79
2023/06/18 00:06:17;;;;;;;39.05;30.58;;;16.10;84.60;;;;;;5099105;28;20043;-80
2023/06/18 00:08:43;;;;;;;31.88;27.08;;;16.00;84.50;;;;;;5098924;28;20124;-78
2023/06/18 00:11:08;;;;;;;38.03;29.95;;;16.00;84.50;;;;;;5098784;28;20039;-80
2023/06/18 00:13:34;;;;;;;36.33;28.25;;;16.00;84.30;;;;;;5082061;28;20040;-80
2023/06/18 00:16:00;;;;;;;33.20;27.98;;;16.00;84.10;;;;;;5098638;28;20050;-80
2023/06/18 00:18:25;;;;;;;36.42;29.98;;;16.00;84.50;;;;;;5098879;28;20160;-77
2023/06/18 00:20:51;;;;;;;36.80;28.92;;;16.00;84.50;;;;;;5098834;28;20104;-77
2023/06/18 00:23:17;;;;;;;40.60;30.92;;;16.00;84.60;;;;;;5081475;28;20431;-80
2023/06/18 00:25:42;;;;;;;33.17;28.42;;;16.00;84.50;;;;;;5081503;28;20131;-79
2023/06/18 00:28:08;;;;;;;37.10;29.67;;;15.90;84.70;;;;;;5098247;28;20043;-80
2023/06/18 00:30:34;;;;;;;34.80;29.45;;;15.90;84.80;;;;;;5115383;28;20032;-80
2023/06/18 00:33:00;;;;;;;37.88;29.77;;;15.90;84.90;;;;;;5065263;28;20449;-78
2023/06/18 00:35:26;;;;;;;39.00;30.35;;;15.90;85.00;;;;;;5115912;28;20042;-80
2023/06/18 00:37:52;;;;;;;45.72;32.90;;;15.90;84.80;;;;;;5081321;28;20473;-79
2023/06/18 00:40:18;;;;;;;37.60;30.23;;;15.90;84.70;;;;;;5098407;28;20046;-79
2023/06/18 00:42:44;;;;;;;37.63;31.05;;;15.80;85.00;;;;;;5115240;28;20035;-79
2023/06/18 00:45:12;;;;;;;40.13;32.30;;;15.80;85.20;;;;;;5081422;28;20441;-79
2023/06/18 00:47:40;;;;;;;36.72;28.70;;;15.70;84.80;;;;;;5081798;28;20399;-81
2023/06/18 00:50:06;;;;;;;43.53;32.70;;;15.70;84.90;;;;;;5098029;28;20074;-80
2023/06/18 00:52:37;;;;;;;35.88;29.48;;;15.60;85.10;;;;;;5097926;28;20036;-80
2023/06/18 00:55:03;;;;;;;39.67;31.63;;;15.50;85.20;;;;;;5097747;28;20040;-79
2023/06/18 00:57:32;;;;;;;39.45;31.00;;;15.50;85.40;;;;;;5114909;28;20046;-78
2023/06/18 00:59:58;;;;;;;35.17;29.42;;;15.50;85.40;;;;;;5097587;28;20066;-78
2023/06/18 01:02:25;;;;;;;35.20;29.77;;;15.50;85.60;;;;;;5097890;28;20039;-81
2023/06/18 01:04:55;;;;;;;34.58;27.55;;;15.50;85.60;;;;;;5081492;28;20122;-79
2023/06/18 01:07:25;;;;;;;33.38;28.90;;;15.50;85.70;;;;;;5081283;28;20036;-79
2023/06/18 01:09:54;;;;;;;35.42;26.95;;;15.50;85.50;;;;;;5114535;28;20114;-79
2023/06/18 01:12:21;;;;;;;32.03;26.58;;;15.40;85.50;;;;;;5097607;28;20457;-79
2023/06/18 01:14:52;;;;;;;34.13;26.85;;;15.50;85.80;;;;;;5080649;28;20047;-78
2023/06/18 01:17:20;;;;;;;33.63;29.42;;;15.50;85.90;;;;;;5097385;28;20070;-78
2023/06/18 01:19:56;;;;;;;36.95;28.27;;;15.40;85.50;;;;;;5097265;28;20126;-79
2023/06/18 01:22:48;;;;;;;34.97;28.23;;;15.40;85.70;;;;;;5097631;28;20050;-78
2023/06/18 01:25:15;;;;;;;37.10;29.30;;;15.40;85.90;;;;;;5086190;28;20063;-79
2023/06/18 01:27:42;;;;;;;38.25;29.75;;;15.30;86.00;;;;;;5080667;28;20057;-78
2023/06/18 01:30:12;;;;;;;37.47;29.48;;;15.30;86.10;;;;;;5114186;28;20079;-78
2023/06/18 01:32:39;;;;;;;38.38;29.80;;;15.20;86.10;;;;;;5114348;28;20040;-78
2023/06/18 01:35:06;;;;;;;38.00;29.30;;;15.20;86.00;;;;;;5097008;28;20039;-78
2023/06/18 01:38:02;;;;;;;39.00;29.10;;;15.20;86.30;;;;;;5097161;28;20043;-79
2023/06/18 01:40:55;;;;;;;42.33;33.17;;;15.20;86.20;;;;;;5097120;28;20089;-79
2023/06/18 01:43:48;;;;;;;44.67;33.20;;;15.20;86.70;;;;;;5114190;28;20043;-77
2023/06/18 01:46:18;;;;;;;44.92;32.25;;;15.20;87.60;;;;;;5113941;28;20507;-79
2023/06/18 01:48:57;;;;;;;38.40;30.50;;;15.20;87.10;;;;;;5097056;28;20042;-77
2023/06/18 01:51:25;;;;;;;38.15;30.92;;;15.20;87.00;;;;;;5113813;28;20036;-78
2023/06/18 01:53:54;;;;;;;47.00;34.83;;;15.20;86.70;;;;;;5113726;28;20039;-78
2023/06/18 01:56:22;;;;;;;43.97;34.00;;;15.20;86.70;;;;;;5113742;28;20093;-78
2023/06/18 01:58:48;;;;;;;37.75;31.80;;;15.10;86.50;;;;;;5096831;28;20043;-78
2023/06/18 02:01:13;;;;;;;47.47;34.60;;;15.20;87.10;;;;;;5096706;28;20514;-78
2023/06/18 02:03:40;;;;;;;51.75;36.30;;;15.10;86.80;;;;;;5079595;28;20317;-78
2023/06/18 02:06:06;;;;;;;42.08;32.80;;;15.20;87.10;;;;;;5096719;28;20044;-78
2023/06/18 02:08:32;;;;;;;39.58;32.03;;;15.10;87.00;;;;;;5096477;28;20051;-80
2023/06/18 02:10:58;;;;;;;37.67;30.27;;;15.10;87.10;;;;;;5113727;28;20035;-77
2023/06/18 02:13:24;;;;;;;41.63;31.85;;;15.10;87.10;;;;;;5096313;28;20484;-78
2023/06/18 02:15:50;;;;;;;36.13;29.88;;;15.10;86.80;;;;;;5062851;28;20039;-79
2023/06/18 02:18:16;;;;;;;38.55;28.98;;;15.00;87.00;;;;;;5095952;28;20051;-77
2023/06/18 02:20:41;;;;;;;36.30;28.98;;;15.00;87.20;;;;;;5096747;28;20046;-79
2023/06/18 02:23:08;;;;;;;38.35;29.42;;;15.00;87.30;;;;;;5112903;28;20036;-78
2023/06/18 02:25:35;;;;;;;34.05;26.23;;;15.00;87.40;;;;;;5112771;28;20055;-79
2023/06/18 02:28:04;;;;;;;29.60;24.33;;;15.00;87.10;;;;;;5113234;28;20040;-79
2023/06/18 02:30:30;;;;;;;34.13;26.70;;;14.90;86.90;;;;;;5096438;28;20040;-78
2023/06/18 02:33:06;;;;;;;36.65;29.23;;;14.90;86.90;;;;;;5112672;28;20127;-78
2023/06/18 02:35:32;;;;;;;38.00;28.92;;;14.90;87.10;;;;;;5095654;28;20035;-80
2023/06/18 02:37:58;;;;;;;40.67;29.80;;;14.80;87.30;;;;;;5096172;28;20383;-78
2023/06/18 02:40:24;;;;;;;41.50;31.33;;;14.80;87.50;;;;;;5096330;28;20036;-79
2023/06/18 02:42:50;;;;;;;43.90;32.40;;;14.80;87.60;;;;;;5112597;28;20074;-78
2023/06/18 02:45:21;;;;;;;35.83;28.88;;;14.80;87.60;;;;;;5096034;28;20079;-78
2023/06/18 02:47:48;;;;;;;33.70;26.67;;;14.90;87.50;;;;;;5113311;28;20130;-77
2023/06/18 02:50:15;;;;;;;36.42;28.88;;;14.90;87.80;;;;;;5112678;28;20071;-79
2023/06/18 02:52:42;;;;;;;38.00;30.60;;;14.90;88.00;;;;;;5112541;28;20044;-78
2023/06/18 02:55:09;;;;;;;41.30;30.45;;;14.90;88.00;;;;;;5112347;28;20039;-79
2023/06/18 02:57:36;;;;;;;39.17;30.73;;;14.90;87.90;;;;;;5094987;28;20092;-79
2023/06/18 03:00:11;;;;;;;34.67;27.42;;;14.90;87.90;;;;;;5077924;28;20043;-78
2023/06/18 03:02:38;;;;;;;35.70;28.40;;;14.90;87.80;;;;;;5111866;28;20058;-78
2023/06/18 03:05:04;;;;;;;36.65;27.17;;;14.90;87.90;;;;;;5094175;28;20040;-78
2023/06/18 03:07:30;;;;;;;30.05;25.70;;;14.90;87.60;;;;;;5111339;28;20044;-78
2023/06/18 03:09:55;;;;;;;36.28;27.38;;;14.90;87.80;;;;;;5094693;28;20057;-78
2023/06/18 03:12:21;;;;;;;36.10;26.52;;;14.80;87.70;;;;;;5112169;28;20036;-78
2023/06/18 03:14:47;;;;;;;36.13;27.48;;;14.80;87.80;;;;;;5112672;28;20039;-78
2023/06/18 03:17:13;;;;;;;38.42;28.77;;;14.70;87.70;;;;;;5114570;28;20043;-78
2023/06/18 03:19:39;;;;;;;40.70;29.30;;;14.70;87.90;;;;;;5099466;28;20031;-79
2023/06/18 03:22:05;;;;;;;40.75;30.52;;;14.60;88.00;;;;;;5116608;28;20043;-79
2023/06/18 03:24:32;;;;;;;37.45;28.90;;;14.60;88.10;;;;;;5116189;28;20507;-78
2023/06/18 03:26:58;;;;;;;33.05;26.13;;;14.70;88.00;;;;;;5099480;28;20047;-78
2023/06/18 03:29:25;;;;;;;42.33;30.50;;;14.70;88.00;;;;;;5083058;28;20035;-77
2023/06/18 03:31:52;;;;;;;39.67;28.40;;;14.70;87.90;;;;;;5116818;28;20035;-78
2023/06/18 03:34:20;;;;;;;33.97;25.83;;;14.70;88.20;;;;;;5116522;28;20040;-78
2023/06/18 03:36:47;;;;;;;33.72;26.13;;;14.70;88.00;;;;;;5082976;28;20120;-77
2023/06/18 03:39:18;;;;;;;36.67;26.67;;;14.80;88.30;;;;;;5099499;28;20506;-78
2023/06/18 03:41:44;;;;;;;28.67;22.95;;;14.80;88.50;;;;;;5116815;28;20055;-77
2023/06/18 03:44:10;;;;;;;31.35;24.65;;;14.80;88.50;;;;;;5099493;28;20369;-78
2023/06/18 03:46:36;;;;;;;38.33;29.30;;;14.80;88.40;;;;;;5099404;28;20072;-77
2023/06/18 03:49:02;;;;;;;35.13;28.30;;;14.80;88.40;;;;;;5116220;28;20093;-77
2023/06/18 03:51:27;;;;;;;30.05;24.70;;;14.90;88.30;;;;;;5082187;28;20040;-80
2023/06/18 03:53:54;;;;;;;29.02;22.55;;;14.90;88.30;;;;;;5116193;28;20116;-80
2023/06/18 03:56:20;;;;;;;28.70;23.70;;;14.90;88.10;;;;;;5116018;28;20044;-78
2023/06/18 03:58:48;;;;;;;28.30;25.10;;;14.90;87.90;;;;;;5098891;28;20104;-78
2023/06/18 04:01:13;;;;;;;26.20;22.95;;;14.90;88.00;;;;;;5099285;28;20044;-79
2023/06/18 04:03:39;;;;;;;23.73;20.73;;;14.90;88.00;;;;;;5098726;28;20034;-78
2023/06/18 04:06:06;;;;;;;20.98;18.80;;;15.00;88.00;;;;;;5098792;28;20043;-79
2023/06/18 04:08:31;;;;;;;25.48;21.52;;;14.90;88.10;;;;;;5098982;28;20040;-80
2023/06/18 04:10:58;;;;;;;26.80;21.83;;;15.00;88.10;;;;;;5098835;28;20038;-78
2023/06/18 04:13:24;;;;;;;25.98;22.75;;;15.00;88.00;;;;;;5098895;28;20047;-79
2023/06/18 04:15:50;;;;;;;25.92;22.23;;;15.00;87.90;;;;;;5099031;28;20057;-78
2023/06/18 04:18:16;;;;;;;28.67;22.98;;;15.00;87.90;;;;;;5115546;28;20043;-79
2023/06/18 04:20:42;;;;;;;27.83;23.75;;;15.00;88.10;;;;;;5081631;28;20035;-78
2023/06/18 04:23:08;;;;;;;34.45;26.27;;;15.10;88.10;;;;;;5115351;28;20487;-79
2023/06/18 04:25:34;;;;;;;30.95;25.23;;;15.10;88.00;;;;;;5098520;28;20043;-79
2023/06/18 04:28:01;;;;;;;30.98;25.02;;;15.10;88.40;;;;;;5114420;28;20070;-80
2023/06/18 04:30:26;;;;;;;33.08;26.95;;;15.20;88.50;;;;;;5098838;28;20038;-80
2023/06/18 04:32:52;;;;;;;34.08;28.55;;;15.30;88.50;;;;;;5098374;28;20542;-80
2023/06/18 04:35:19;;;;;;;31.05;26.52;;;15.40;88.70;;;;;;5098137;28;20071;-79
2023/06/18 04:37:45;;;;;;;35.53;28.73;;;15.40;88.60;;;;;;5115535;28;20043;-79
2023/06/18 04:40:11;;;;;;;33.22;27.35;;;15.40;88.50;;;;;;5115485;28;20054;-79
2023/06/18 04:42:36;;;;;;;34.30;27.73;;;15.50;88.30;;;;;;5098286;28;20539;-80
2023/06/18 04:45:03;;;;;;;36.53;28.23;;;15.50;88.70;;;;;;5098347;28;20104;-80
2023/06/18 04:47:29;;;;;;;32.47;27.02;;;15.50;88.80;;;;;;5081662;28;20100;-79
2023/06/18 04:49:55;;;;;;;34.10;27.90;;;15.50;88.50;;;;;;5098080;28;20439;-79
2023/06/18 04:52:21;;;;;;;31.45;26.73;;;15.60;88.60;;;;;;5081143;28;20046;-78
2023/06/18 04:54:46;;;;;;;34.50;28.80;;;15.70;88.70;;;;;;5098256;28;20035;-79
2023/06/18 04:57:12;;;;;;;31.55;27.75;;;15.70;88.70;;;;;;5081149;28;20036;-78
2023/06/18 04:59:39;;;;;;;35.28;29.52;;;15.70;88.90;;;;;;5097701;28;20097;-78
2023/06/18 05:02:06;;;;;;;33.67;27.65;;;15.90;88.70;;;;;;5097655;28;20050;-79
2023/06/18 05:04:32;;;;;;;35.80;28.00;;;16.00;88.80;;;;;;5114383;28;20039;-78
2023/06/18 05:06:58;;;;;;;43.47;33.88;;;16.00;88.60;;;;;;5114399;28;20039;-78
2023/06/18 05:09:26;;;;;;;42.08;31.33;;;16.00;88.60;;;;;;5081081;28;20035;-78
2023/06/18 05:11:52;;;;;;;42.03;32.65;;;16.10;88.90;;;;;;5097464;28;20426;-78
2023/06/18 05:14:20;;;;;;;37.88;29.60;;;16.10;88.90;;;;;;5097623;28;20126;-78
2023/06/18 05:16:46;;;;;;;44.58;34.40;;;16.10;88.70;;;;;;5080652;28;20079;-77
2023/06/18 05:19:12;;;;;;;46.53;32.50;;;16.20;88.50;;;;;;5080450;28;20039;-78
2023/06/18 05:21:37;;;;;;;38.83;29.23;;;16.20;88.60;;;;;;5114640;28;20036;-79
2023/06/18 05:24:03;;;;;;;44.88;32.92;;;16.20;88.80;;;;;;5096133;28;20052;-78
2023/06/18 05:26:31;;;;;;;40.20;31.63;;;16.30;88.70;;;;;;5079643;28;20039;-79
2023/06/18 05:28:57;;;;;;;38.22;28.60;;;16.30;88.80;;;;;;5096768;28;20479;-78
2023/06/18 05:31:22;;;;;;;37.17;28.63;;;16.40;88.40;;;;;;5113977;28;20089;-79
2023/06/18 05:33:48;;;;;;;32.67;27.45;;;16.50;88.50;;;;;;5080059;28;20043;-78
2023/06/18 05:36:14;;;;;;;35.15;27.25;;;16.50;88.30;;;;;;5097371;28;20039;-78
2023/06/18 05:38:40;;;;;;;35.78;28.63;;;16.50;88.80;;;;;;5080316;28;20043;-77
2023/06/18 05:41:06;;;;;;;36.28;29.13;;;16.50;88.80;;;;;;5096661;28;20541;-78
2023/06/18 05:43:31;;;;;;;37.30;29.38;;;16.50;88.60;;;;;;5096642;28;20178;-78
2023/06/18 05:45:57;;;;;;;35.42;28.10;;;16.60;88.40;;;;;;5113352;28;20039;-78
2023/06/18 05:48:23;;;;;;;30.58;24.75;;;16.60;88.50;;;;;;5113599;28;20035;-78
2023/06/18 05:50:49;;;;;;;31.13;25.85;;;16.70;88.40;;;;;;5113582;28;20040;-77
2023/06/18 05:53:15;;;;;;;32.33;26.48;;;16.70;88.50;;;;;;5096596;28;20479;-78
2023/06/18 05:55:41;;;;;;;33.65;26.52;;;16.80;88.40;;;;;;5096062;28;20050;-77
2023/06/18 05:58:07;;;;;;;35.45;29.05;;;16.90;88.40;;;;;;5062676;28;20527;-78
2023/06/18 06:00:33;;;;;;;32.22;26.98;;;17.00;88.20;;;;;;5096177;28;20126;-77
2023/06/18 06:02:58;;;;;;;36.15;28.70;;;17.00;88.40;;;;;;5096083;28;20035;-78
2023/06/18 06:05:24;;;;;;;36.92;29.52;;;17.00;88.20;;;;;;5096149;28;20063;-78
2023/06/18 06:07:50;;;;;;;33.50;26.52;;;17.00;88.40;;;;;;5079413;28;20039;-78
2023/06/18 06:10:18;;;;;;;32.40;27.13;;;17.10;88.20;;;;;;5113198;28;20035;-78
2023/06/18 06:12:44;;;;;;;35.38;28.25;;;17.10;88.00;;;;;;5096486;28;20036;-78
2023/06/18 06:15:10;;;;;;;25.73;21.85;;;17.20;88.00;;;;;;5096298;28;20510;-77
2023/06/18 06:17:37;;;;;;;33.97;27.52;;;17.20;88.30;;;;;;5079454;28;20251;-78
2023/06/18 06:20:03;;;;;;;30.52;24.25;;;17.20;88.30;;;;;;5079240;28;20523;-78
2023/06/18 06:22:29;;;;;;;33.70;27.80;;;17.30;88.10;;;;;;5113302;28;20048;-78
2023/06/18 06:24:55;;;;;;;33.30;26.67;;;17.40;87.90;;;;;;5095659;28;20453;-78
2023/06/18 06:27:20;;;;;;;36.42;28.52;;;17.50;87.60;;;;;;5112774;28;20044;-78
2023/06/18 06:29:46;;;;;;;31.65;25.77;;;17.50;87.50;;;;;;5095746;28;20035;-78
2023/06/18 06:32:12;;;;;;;33.42;28.48;;;17.60;87.30;;;;;;5112676;28;20085;-78
2023/06/18 06:34:38;;;;;;;37.10;28.40;;;17.70;87.60;;;;;;5096091;28;20039;-78
2023/06/18 06:37:03;;;;;;;33.58;25.13;;;17.90;87.30;;;;;;5096034;28;20500;-79
2023/06/18 06:39:29;;;;;;;30.67;26.13;;;18.00;87.20;;;;;;5096225;28;20043;-77
2023/06/18 06:41:55;;;;;;;33.45;26.92;;;18.00;86.90;;;;;;5095718;28;20152;-79
2023/06/18 06:44:21;;;;;;;37.15;29.27;;;18.00;86.90;;;;;;5112788;28;20089;-78
2023/06/18 06:46:46;;;;;;;33.28;29.15;;;18.10;86.70;;;;;;5112965;28;20079;-77
2023/06/18 06:49:12;;;;;;;34.05;27.20;;;18.20;86.70;;;;;;5096094;28;20042;-79
2023/06/18 06:51:38;;;;;;;31.40;27.20;;;18.30;86.50;;;;;;5078725;28;20119;-78
2023/06/18 06:54:05;;;;;;;28.77;24.05;;;18.50;86.50;;;;;;5079093;28;20536;-78
2023/06/18 06:56:32;;;;;;;32.33;27.77;;;18.50;86.40;;;;;;5095618;28;20392;-78
2023/06/18 06:58:57;;;;;;;29.88;26.02;;;18.60;86.20;;;;;;5112643;28;20039;-79
2023/06/18 07:01:24;;;;;;;36.25;27.92;;;18.70;86.10;;;;;;5112512;28;20054;-78
2023/06/18 07:03:49;;;;;;;32.28;27.35;;;18.70;86.20;;;;;;5095127;28;20077;-79
2023/06/18 07:06:15;;;;;;;30.05;26.30;;;18.80;86.20;;;;;;5112418;28;20081;-80
2023/06/18 07:08:41;;;;;;;31.92;26.58;;;18.80;85.90;;;;;;5095635;28;20112;-79
2023/06/18 07:11:07;;;;;;;32.90;25.95;;;18.80;86.00;;;;;;5096007;28;20038;-79
2023/06/18 07:13:33;;;;;;;29.63;25.58;;;18.80;86.00;;;;;;5078840;28;20484;-80
2023/06/18 07:15:59;;;;;;;33.55;27.60;;;18.80;85.80;;;;;;5096099;28;20398;-79
2023/06/18 07:18:25;;;;;;;36.72;31.92;;;18.90;85.60;;;;;;5079288;28;20046;-79
2023/06/18 07:20:50;;;;;;;31.70;26.25;;;18.90;85.50;;;;;;5095984;28;20075;-79
2023/06/18 07:23:16;;;;;;;30.80;25.50;;;19.00;85.40;;;;;;5094996;28;20069;-79
2023/06/18 07:25:42;;;;;;;29.63;26.13;;;19.10;85.20;;;;;;5095229;28;20108;-79
2023/06/18 07:28:08;;;;;;;33.92;26.88;;;19.20;84.90;;;;;;5112693;28;20100;-79
2023/06/18 07:30:33;;;;;;;33.30;26.35;;;19.30;84.80;;;;;;5062267;28;20353;-79
2023/06/18 07:32:59;;;;;;;35.08;28.38;;;19.40;84.70;;;;;;5095404;28;20039;-79
2023/06/18 07:35:25;;;;;;;32.75;26.50;;;19.50;84.40;;;;;;5112417;28;20028;-79
2023/06/18 07:37:51;;;;;;;34.80;27.48;;;19.60;84.20;;;;;;5111821;28;20480;-80
2023/06/18 07:40:16;;;;;;;32.78;26.60;;;19.80;84.00;;;;;;5078290;28;20471;-79
2023/06/18 07:42:42;;;;;;;33.08;26.08;;;19.90;83.80;;;;;;5078083;28;20078;-80
2023/06/18 07:45:08;;;;;;;28.75;24.08;;;20.00;83.30;;;;;;5112217;28;20035;-79
2023/06/18 07:47:34;;;;;;;27.10;22.52;;;20.20;83.10;;;;;;5112776;28;20126;-79
2023/06/18 07:50:01;;;;;;;28.02;24.85;;;20.30;82.80;;;;;;5079045;28;20047;-78
2023/06/18 07:52:27;;;;;;;30.02;25.10;;;20.50;82.20;;;;;;5112204;28;20080;-79
2023/06/18 07:54:53;;;;;;;33.05;25.10;;;20.70;82.10;;;;;;5112030;28;20091;-78
2023/06/18 07:57:19;;;;;;;33.55;26.23;;;20.90;82.00;;;;;;5078603;28;20039;-77
2023/06/18 07:59:45;;;;;;;27.45;23.73;;;20.90;81.40;;;;;;5095522;28;20040;-78
2023/06/18 08:02:11;;;;;;;35.65;26.63;;;21.00;81.10;;;;;;5095799;28;20047;-77
2023/06/18 08:04:37;;;;;;;33.22;25.30;;;21.20;80.60;;;;;;5081943;28;20036;-77
2023/06/18 08:07:03;;;;;;;29.33;24.85;;;21.20;80.70;;;;;;5099008;28;20050;-79
2023/06/18 08:09:29;;;;;;;26.85;22.42;;;21.30;79.90;;;;;;5098484;28;20035;-78
2023/06/18 08:11:55;;;;;;;27.92;24.13;;;21.30;79.80;;;;;;5081918;28;20484;-80
2023/06/18 08:14:21;;;;;;;31.27;23.52;;;21.40;79.00;;;;;;5065374;28;20036;-79
2023/06/18 08:16:46;;;;;;;30.40;24.80;;;21.60;79.10;;;;;;5115564;28;20048;-77
2023/06/18 08:19:12;;;;;;;28.38;23.55;;;21.80;78.60;;;;;;5116127;28;20058;-77
2023/06/18 08:21:38;;;;;;;28.02;24.92;;;22.00;77.60;;;;;;5115342;28;20036;-78
2023/06/18 08:24:03;;;;;;;26.88;23.63;;;22.00;77.60;;;;;;5098186;28;20055;-77
2023/06/18 08:26:29;;;;;;;25.00;21.58;;;22.00;77.90;;;;;;5098099;28;20050;-79
2023/06/18 08:28:55;;;;;;;27.27;23.48;;;22.20;77.60;;;;;;5098566;28;20482;-77
2023/06/18 08:31:21;;;;;;;28.92;22.50;;;22.30;77.20;;;;;;5098415;28;20036;-79
2023/06/18 08:33:48;;;;;;;25.65;22.90;;;22.40;76.90;;;;;;5097643;28;20046;-79
2023/06/18 08:36:14;;;;;;;23.02;20.40;;;22.50;75.40;;;;;;5114483;28;20040;-77
2023/06/18 08:38:40;;;;;;;26.25;21.73;;;22.50;76.10;;;;;;5064533;28;20042;-80
2023/06/18 08:41:07;;;;;;;25.83;22.15;;;22.60;75.60;;;;;;5097659;28;20065;-79
2023/06/18 08:43:36;;;;;;;29.33;23.45;;;22.70;75.90;;;;;;5097573;28;20486;-80
2023/06/18 08:46:10;;;;;;;23.30;20.73;;;22.90;75.90;;;;;;5114863;28;20040;-79
2023/06/18 08:48:52;;;;;;;26.55;22.83;;;23.10;75.60;;;;;;5098041;28;20087;-79
2023/06/18 08:51:20;;;;;;;23.65;20.73;;;23.30;75.40;;;;;;5097319;28;20031;-78
2023/06/18 08:54:18;;;;;;;28.38;19.80;;;23.30;75.00;;;;;;5097544;28;20185;-79
2023/06/18 08:56:52;;;;;;;22.20;19.75;;;23.40;74.00;;;;;;5097350;28;20050;-79
2023/06/18 08:59:18;;;;;;;;;;;23.50;72.60;;;;;;5114645;28;20154;-80
2023/06/18 09:01:45;;;;;;;25.17;20.25;;;23.60;73.00;;;;;;5097205;28;19916;-79
2023/06/18 09:04:12;;;;;;;23.83;19.73;;;23.80;73.10;;;;;;5114098;28;20082;-79
2023/06/18 09:06:39;;;;;;;25.60;21.05;;;23.90;72.40;;;;;;5114162;28;20061;-79
2023/06/18 09:09:05;;;;;;;15.52;13.80;;;24.00;71.60;;;;;;5097412;28;20082;-79
2023/06/18 09:11:33;;;;;;;16.60;14.80;;;24.10;70.40;;;;;;5097630;28;20071;-79
2023/06/18 09:13:59;;;;;;;18.52;14.98;;;24.20;69.80;;;;;;5096603;28;20578;-79
2023/06/18 09:16:25;;;;;;;18.25;15.75;;;24.30;68.90;;;;;;5114626;28;20126;-79
2023/06/18 09:18:52;;;;;;;22.98;16.10;;;24.40;68.60;;;;;;5114558;28;20086;-79
2023/06/18 09:21:40;;;;;;;20.88;14.98;;;24.60;68.50;;;;;;5114658;28;20376;-78
2023/06/18 09:24:22;;;;;;;18.83;14.40;;;24.70;67.20;;;;;;5113941;28;20051;-81
2023/06/18 09:26:59;;;;;;;14.50;13.00;;;24.90;66.50;;;;;;5114520;28;20483;-80
2023/06/18 09:29:29;;;;;;;14.75;13.25;;;25.00;65.70;;;;;;5114514;28;20557;-81
2023/06/18 09:31:55;;;;;;;16.67;13.38;;;25.20;64.50;;;;;;5114596;28;20396;-78
2023/06/18 09:34:21;;;;;;;16.50;13.40;;;25.40;64.20;;;;;;5080395;28;20047;-80
2023/06/18 09:36:48;;;;;;;15.43;13.07;;;25.60;63.40;;;;;;5079874;28;20043;-80
2023/06/18 09:39:25;;;;;;;14.50;11.02;;;25.80;63.30;;;;;;5097109;28;20040;-79
2023/06/18 09:41:52;;;;;;;13.65;11.50;;;25.90;56.80;;;;;;5097692;28;20097;-81
2023/06/18 09:44:20;;;;;;;16.33;12.02;;;25.90;60.30;;;;;;5080616;28;20042;-80
2023/06/18 09:46:54;;;;;;;14.40;11.65;;;25.90;59.20;;;;;;5097410;28;20047;-80
2023/06/18 09:49:23;;;;;;;13.27;11.98;;;25.90;57.00;;;;;;5114509;28;20075;-79
2023/06/18 09:51:50;;;;;;;12.40;11.20;;;25.90;58.90;;;;;;5114097;28;20051;-79
2023/06/18 09:54:15;;;;;;;12.52;10.48;;;25.90;59.20;;;;;;5097246;28;20040;-80
2023/06/18 09:56:58;;;;;;;14.30;10.63;;;25.90;58.70;;;;;;5114127;28;20506;-80
2023/06/18 09:59:25;;;;;;;11.43;9.93;;;25.80;56.90;;;;;;5113957;28;20044;-80
2023/06/18 10:01:51;;;;;;;12.77;10.23;;;25.70;56.80;;;;;;5096357;28;20043;-79
2023/06/18 10:04:17;;;;;;;12.40;11.20;;;25.70;58.00;;;;;;5112927;28;20043;-77
2023/06/18 10:06:59;;;;;;;13.90;11.30;;;25.80;58.40;;;;;;5113620;28;20035;-80
2023/06/18 10:09:35;;;;;;;10.85;9.80;;;25.90;57.50;;;;;;5097018;28;20123;-80
2023/06/18 10:12:03;;;;;;;12.70;11.43;;;25.90;57.30;;;;;;5096647;28;20081;-80
2023/06/18 10:14:30;;;;;;;11.93;10.63;;;25.90;57.60;;;;;;5113524;28;20043;-79
2023/06/18 10:17:25;;;;;;;11.27;9.93;;;25.90;58.00;;;;;;5113237;28;20542;-80
2023/06/18 10:20:02;;;;;;;12.20;10.13;;;26.00;57.30;;;;;;5096189;28;20495;-80
2023/06/18 10:22:31;;;;;;;12.32;10.30;;;26.20;58.00;;;;;;5096573;28;20046;-80
2023/06/18 10:25:07;;;;;;;12.40;10.75;;;26.30;56.40;;;;;;5095990;28;20069;-79
2023/06/18 10:27:33;;;;;;;11.77;10.57;;;26.50;57.40;;;;;;5096585;28;20097;-77
2023/06/18 10:30:00;;;;;;;11.90;10.70;;;26.60;56.60;;;;;;5113162;28;20044;-78
2023/06/18 10:32:27;;;;;;;10.75;9.75;;;26.60;55.70;;;;;;5096147;28;20092;-78
2023/06/18 10:34:54;;;;;;;12.48;9.95;;;26.80;56.20;;;;;;5079582;28;20039;-78
2023/06/18 10:37:21;;;;;;;11.10;9.38;;;26.90;56.00;;;;;;5113607;28;20047;-79
2023/06/18 10:39:47;;;;;;;11.07;9.93;;;27.10;56.30;;;;;;5096284;28;20046;-77
2023/06/18 10:42:15;;;;;;;12.75;10.10;;;27.20;55.90;;;;;;5095994;28;20076;-78
2023/06/18 10:44:57;;;;;;;13.38;10.27;;;27.30;54.90;;;;;;5113101;28;20496;-78
2023/06/18 10:47:26;;;;;;;11.63;10.32;;;27.40;54.80;;;;;;5113013;28;20043;-79
2023/06/18 10:50:15;;;;;;;10.30;9.30;;;27.50;54.40;;;;;;5096109;28;20035;-78
2023/06/18 10:52:49;;;;;;;11.88;9.93;;;27.50;53.10;;;;;;5112986;28;20036;-79
2023/06/18 10:55:20;;;;;;;;;;;27.60;54.00;;;;;;5096671;28;20057;-77
2023/06/18 10:57:47;;;;;;;12.27;9.88;;;27.80;54.20;;;;;;5112779;28;20423;-77
2023/06/18 11:00:19;;;;;;;9.93;8.93;;;28.00;54.00;;;;;;5112959;28;20051;-78
2023/06/18 11:02:46;;;;;;;12.30;9.75;;;28.10;53.00;;;;;;5095974;28;20035;-78
2023/06/18 11:05:35;;;;;;;9.82;8.90;;;28.20;52.10;;;;;;5112961;28;20408;-78
2023/06/18 11:08:04;;;;;;;14.13;11.80;;;28.30;51.60;;;;;;5113155;28;20054;-78
2023/06/18 11:10:34;;;;;;;12.52;9.60;;;28.20;51.40;;;;;;5112920;28;20039;-79
2023/06/18 11:13:06;;;;;;;10.07;9.05;;;28.30;51.40;;;;;;5095619;28;20031;-77
2023/06/18 11:15:33;;;;;;;9.95;8.95;;;28.40;50.90;;;;;;5113136;28;20139;-78
2023/06/18 11:18:01;;;;;;;10.73;8.77;;;28.40;49.30;;;;;;5112881;28;20510;-78
2023/06/18 11:20:31;;;;;;;9.57;8.38;;;28.50;49.20;;;;;;5079529;28;20040;-78
2023/06/18 11:22:59;;;;;;;9.60;8.65;;;28.70;49.20;;;;;;5113309;28;20074;-79
2023/06/18 11:25:26;;;;;;;11.63;9.05;;;28.80;48.40;;;;;;5112664;28;20090;-80
2023/06/18 11:27:54;;;;;;;10.55;9.27;;;28.90;48.10;;;;;;5096110;28;20101;-78
2023/06/18 11:30:21;;;;;;;9.18;8.38;;;28.90;47.40;;;;;;5095986;28;20040;-79
2023/06/18 11:32:47;;;;;;;8.90;7.82;;;29.10;47.50;;;;;;5112887;28;20078;-79
2023/06/18 11:35:14;;;;;;;8.90;8.10;;;29.20;47.30;;;;;;5112880;28;20050;-79
2023/06/18 11:37:41;;;;;;;9.38;8.48;;;29.20;47.70;;;;;;5096982;28;20044;-79
2023/06/18 11:40:07;;;;;;;10.07;8.70;;;29.30;47.10;;;;;;5099681;28;20044;-79
2023/06/18 11:42:35;;;;;;;8.48;7.63;;;29.10;45.90;;;;;;5099722;28;20047;-79
2023/06/18 11:45:03;;;;;;;10.00;8.05;;;29.10;44.50;;;;;;5099490;28;20491;-80
2023/06/18 11:47:30;;;;;;;9.27;8.23;;;29.20;45.00;;;;;;5098902;28;20049;-80
2023/06/18 11:49:57;;;;;;;8.70;7.90;;;29.30;45.40;;;;;;5082461;28;20036;-79
2023/06/18 11:52:24;;;;;;;8.85;7.93;;;29.50;45.60;;;;;;5098943;28;20382;-80
2023/06/18 11:54:51;;;;;;;9.38;8.20;;;29.70;44.80;;;;;;5115751;28;20118;-80
2023/06/18 11:57:20;;;;;;;9.40;8.38;;;29.90;44.40;;;;;;5098832;28;20039;-78
2023/06/18 11:59:50;;;;;;;8.93;8.02;;;29.80;43.00;;;;;;5098863;28;20488;-79
2023/06/18 12:02:23;;;;;;;9.10;7.57;;;30.00;42.50;;;;;;5099377;28;20517;-80
2023/06/18 12:04:50;;;;;;;7.93;6.82;;;30.20;42.40;;;;;;5098801;28;20529;-80
2023/06/18 12:07:24;;;;;;;8.38;7.32;;;30.40;41.70;;;;;;5098851;28;20078;-81
2023/06/18 12:09:52;;;;;;;9.00;8.00;;;30.50;41.00;;;;;;5115550;28;20035;-80
2023/06/18 12:12:48;;;;;;;9.73;7.63;;;30.60;40.30;;;;;;5115754;28;20084;-80
2023/06/18 12:15:29;;;;;;;10.00;7.70;;;30.60;39.80;;;;;;5115514;28;20086;-79
2023/06/18 12:18:02;;;;;;;8.27;7.30;;;30.80;39.90;;;;;;5115349;28;20082;-81
2023/06/18 12:20:29;;;;;;;8.15;7.40;;;30.30;39.50;;;;;;5115687;28;20548;-79
2023/06/18 12:22:59;;;;;;;8.07;7.28;;;30.30;40.10;;;;;;5115264;28;20047;-79
2023/06/18 12:25:27;;;;;;;7.55;6.85;;;30.10;40.00;;;;;;5114761;28;20502;-79
2023/06/18 12:27:58;;;;;;;7.60;6.75;;;29.80;39.40;;;;;;5115152;28;20047;-78
2023/06/18 12:30:42;;;;;;;7.47;6.65;;;29.80;39.30;;;;;;5115285;28;20061;-80
2023/06/18 12:33:13;;;;;;;9.93;7.00;;;29.80;39.50;;;;;;5097996;28;20044;-80
2023/06/18 12:35:58;;;;;;;7.93;6.55;;;29.90;39.60;;;;;;5098280;28;20046;-79